createdAt,value
2018-09-11T00:01:02.242Z,101750.00
2018-09-11T00:06:00.784Z,101757.00
2018-09-11T00:10:59.832Z,101757.00
2018-09-11T00:15:58.240Z,101765.00
2018-09-11T00:20:57.588Z,101766.00
2018-09-11T00:25:56.797Z,101766.00
2018-09-11T00:30:55.563Z,101759.00
2018-09-11T00:35:53.381Z,101756.00
2018-09-11T00:40:52.481Z,101756.00
2018-09-11T00:45:51.105Z,101758.00
2018-09-11T00:50:50.548Z,101757.00
2018-09-11T00:55:48.791Z,101758.00
2018-09-11T01:00:47.601Z,101766.00
2018-09-11T01:05:47.578Z,101770.00
2018-09-11T01:10:45.776Z,101768.00
2018-09-11T01:15:44.318Z,101762.00
2018-09-11T01:20:44.255Z,101757.00
2018-09-11T01:25:42.997Z,101751.00
2018-09-11T01:30:41.321Z,101751.00
2018-09-11T01:35:45.832Z,101758.00
2018-09-11T01:40:47.496Z,101754.00
2018-09-11T01:45:46.832Z,101746.00
2018-09-11T01:50:47.062Z,101749.00
2018-09-11T01:55:46.146Z,101749.00
2018-09-11T02:00:45.407Z,101738.00
2018-09-11T02:05:45.657Z,101729.00
2018-09-11T02:10:44.766Z,101728.00
2018-09-11T02:15:44.475Z,101737.00
2018-09-11T02:20:44.721Z,101738.00
2018-09-11T02:25:43.413Z,101740.00
2018-09-11T02:30:43.095Z,101740.00
2018-09-11T02:35:42.871Z,101739.00
2018-09-11T02:40:41.391Z,101743.00
2018-09-11T02:45:40.285Z,101750.00
2018-09-11T02:50:39.747Z,101747.00
2018-09-11T02:55:38.783Z,101749.00
2018-09-11T03:00:38.816Z,101751.00
2018-09-11T03:05:37.618Z,101750.00
2018-09-11T03:10:37.129Z,101751.00
2018-09-11T03:15:37.085Z,101754.00
2018-09-11T03:20:36.564Z,101758.00
2018-09-11T03:25:36.521Z,101757.00
2018-09-11T03:30:36.150Z,101758.00
2018-09-11T03:35:35.282Z,101764.00
2018-09-11T03:40:34.844Z,101760.00
2018-09-11T03:45:33.959Z,101765.00
2018-09-11T03:50:35.556Z,101769.00
2018-09-11T03:55:33.065Z,101769.00
2018-09-11T04:00:29.340Z,101774.00
2018-09-11T04:05:28.272Z,101783.00
2018-09-11T04:10:25.218Z,101792.00
2018-09-11T04:15:22.869Z,101789.00
2018-09-11T04:20:20.237Z,101788.00
2018-09-11T04:25:17.720Z,101781.00
2018-09-11T04:30:14.802Z,101777.00
2018-09-11T04:35:12.845Z,101786.00
2018-09-11T04:40:11.040Z,101783.00
2018-09-11T04:45:09.483Z,101786.00
2018-09-11T04:50:08.630Z,101783.00
2018-09-11T04:55:05.911Z,101781.00
2018-09-11T05:00:04.036Z,101775.00
2018-09-11T05:05:01.516Z,101769.00
2018-09-11T05:09:57.741Z,101781.00
2018-09-11T05:14:51.052Z,101782.00
2018-09-11T05:19:44.836Z,101771.00
2018-09-11T05:24:38.208Z,101766.00
2018-09-11T05:29:31.453Z,101773.00
2018-09-11T05:34:24.714Z,101770.00
2018-09-11T05:39:17.963Z,101768.00
2018-09-11T05:44:11.186Z,101771.00
2018-09-11T05:49:05.413Z,101773.00
2018-09-11T05:53:59.522Z,101773.00
2018-09-11T05:58:52.825Z,101767.00
2018-09-11T06:03:46.097Z,101766.00
2018-09-11T06:08:39.333Z,101758.00
2018-09-11T06:13:33.123Z,101765.00
2018-09-11T06:18:26.866Z,101767.00
2018-09-11T06:23:20.187Z,101768.00
2018-09-11T06:28:13.432Z,101775.00
2018-09-11T06:33:06.651Z,101778.00
2018-09-11T06:37:59.893Z,101786.00
2018-09-11T06:42:53.173Z,101771.00
2018-09-11T06:47:46.512Z,101775.00
2018-09-11T06:52:39.756Z,101765.00
2018-09-11T06:57:32.959Z,101765.00
2018-09-11T07:02:26.294Z,101763.00
2018-09-11T07:07:19.693Z,101763.00
2018-09-11T07:12:12.898Z,101762.00
2018-09-11T07:17:06.292Z,101763.00
2018-09-11T07:21:59.606Z,101759.00
2018-09-11T07:26:52.962Z,101756.00
2018-09-11T07:31:46.293Z,101754.00
2018-09-11T07:36:39.531Z,101755.00
2018-09-11T07:41:32.771Z,101761.00
2018-09-11T07:46:26.013Z,101754.00
2018-09-11T07:51:19.270Z,101751.00
2018-09-11T07:56:12.514Z,101769.00
2018-09-11T08:01:05.745Z,101774.00
2018-09-11T08:05:58.957Z,101761.00
2018-09-11T08:10:52.199Z,101767.00
2018-09-11T08:15:45.489Z,101762.00
2018-09-11T08:20:38.724Z,101756.00
2018-09-11T08:25:31.961Z,101760.00
2018-09-11T08:30:28.921Z,101756.00
2018-09-11T08:35:22.150Z,101758.00
2018-09-11T08:40:15.466Z,101763.00
2018-09-11T08:45:08.721Z,101756.00
2018-09-11T08:50:01.981Z,101750.00
2018-09-11T08:54:55.293Z,101736.00
2018-09-11T08:59:48.525Z,101746.00
2018-09-11T09:04:41.817Z,101738.00
2018-09-11T09:09:35.087Z,101745.00
2018-09-11T09:14:28.332Z,101748.00
2018-09-11T09:19:21.751Z,101742.00
2018-09-11T09:24:14.985Z,101743.00
2018-09-11T09:29:08.889Z,101732.00
2018-09-11T09:34:02.226Z,101726.00
2018-09-11T09:38:55.589Z,101732.00
2018-09-11T09:43:48.834Z,101725.00
2018-09-11T09:48:42.108Z,101718.00
2018-09-11T09:53:35.320Z,101720.00
2018-09-11T09:58:28.837Z,101716.00
2018-09-11T10:03:22.130Z,101715.00
2018-09-11T10:08:15.376Z,101718.00
2018-09-11T10:13:08.604Z,101716.00
2018-09-11T10:18:01.850Z,101719.00
2018-09-11T10:22:55.082Z,101730.00
2018-09-11T10:27:48.310Z,101729.00
2018-09-11T10:32:41.643Z,101714.00
2018-09-11T10:37:34.974Z,101705.00
2018-09-11T10:42:28.217Z,101707.00
2018-09-11T10:47:21.441Z,101704.00
2018-09-11T10:52:14.696Z,101695.00
2018-09-11T10:57:08.058Z,101692.00
2018-09-11T11:02:01.334Z,101691.00
2018-09-11T11:06:54.631Z,101681.00
2018-09-11T11:11:47.905Z,101687.00
2018-09-11T11:16:41.182Z,101677.00
2018-09-11T11:21:34.420Z,101658.00
2018-09-11T11:26:27.634Z,101650.00
2018-09-11T11:31:20.898Z,101655.00
2018-09-11T11:36:14.175Z,101651.00
2018-09-11T11:41:07.456Z,101647.00
2018-09-11T11:46:00.804Z,101645.00
2018-09-11T11:50:54.037Z,101650.00
2018-09-11T11:55:47.268Z,101647.00
2018-09-11T12:00:40.567Z,101651.00
2018-09-11T12:05:33.832Z,101656.00
2018-09-11T12:10:27.099Z,101646.00
2018-09-11T12:15:20.334Z,101639.00
2018-09-11T12:20:13.571Z,101638.00
2018-09-11T12:25:06.841Z,101639.00
2018-09-11T12:30:00.795Z,101615.00
2018-09-11T12:34:54.091Z,101624.00
2018-09-11T12:39:47.363Z,101624.00
2018-09-11T12:44:41.330Z,101611.00
2018-09-11T12:49:34.562Z,101612.00
2018-09-11T12:54:27.783Z,101598.00
2018-09-11T12:59:21.069Z,101603.00
2018-09-11T13:04:14.346Z,101595.00
2018-09-11T13:09:07.912Z,101595.00
2018-09-11T13:14:01.204Z,101588.00
2018-09-11T13:18:54.420Z,101587.00
2018-09-11T13:23:47.662Z,101573.00
2018-09-11T13:28:40.893Z,101578.00
2018-09-11T13:33:34.130Z,101578.00
2018-09-11T13:38:27.372Z,101573.00
2018-09-11T13:43:20.623Z,101562.00
2018-09-11T13:48:14.323Z,101561.00
2018-09-11T13:53:07.589Z,101556.00
2018-09-11T13:58:00.857Z,101551.00
2018-09-11T14:02:55.141Z,101544.00
2018-09-11T14:07:48.400Z,101546.00
2018-09-11T14:12:41.726Z,101539.00
2018-09-11T14:17:35.083Z,101548.00
2018-09-11T14:22:28.353Z,101540.00
2018-09-11T14:27:21.831Z,101542.00
2018-09-11T14:32:15.085Z,101541.00
2018-09-11T14:37:08.424Z,101544.00
2018-09-11T14:42:01.696Z,101529.00
2018-09-11T14:46:54.977Z,101528.00
2018-09-11T14:51:48.539Z,101524.00
2018-09-11T14:56:41.835Z,101528.00
2018-09-11T15:01:35.137Z,101517.00
2018-09-11T15:06:28.430Z,101523.00
2018-09-11T15:11:21.726Z,101516.00
2018-09-11T15:16:14.985Z,101520.00
2018-09-11T15:21:08.233Z,101520.00
2018-09-11T15:26:01.549Z,101514.00
2018-09-11T15:30:54.818Z,101507.00
2018-09-11T15:35:48.066Z,101495.00
2018-09-11T15:40:41.326Z,101498.00
2018-09-11T15:45:34.569Z,101503.00
2018-09-11T15:50:27.841Z,101499.00
2018-09-11T15:55:21.134Z,101496.00
2018-09-11T16:00:14.443Z,101485.00
2018-09-11T16:05:07.704Z,101488.00
2018-09-11T16:10:00.951Z,101482.00
2018-09-11T16:14:54.207Z,101480.00
2018-09-11T16:19:47.506Z,101470.00
2018-09-11T16:24:40.771Z,101463.00
2018-09-11T16:29:34.038Z,101461.00
2018-09-11T16:34:27.354Z,101453.00
2018-09-11T16:39:20.605Z,101455.00
2018-09-11T16:44:13.839Z,101451.00
2018-09-11T16:49:07.809Z,101455.00
2018-09-11T16:54:01.139Z,101448.00
2018-09-11T16:59:01.272Z,101443.00
2018-09-11T17:03:54.532Z,101450.00
2018-09-11T17:08:47.860Z,101464.00
2018-09-11T17:13:41.055Z,101466.00
2018-09-11T17:18:34.328Z,101462.00
2018-09-11T17:23:27.589Z,101466.00
2018-09-11T17:28:20.819Z,101472.00
2018-09-11T17:33:14.107Z,101476.00
2018-09-11T17:38:07.381Z,101478.00
2018-09-11T17:43:00.635Z,101478.00
2018-09-11T17:47:54.943Z,101481.00
2018-09-11T17:52:48.157Z,101490.00
2018-09-11T17:57:41.475Z,101489.00
2018-09-11T18:02:34.951Z,101494.00
2018-09-11T18:07:28.279Z,101508.00
2018-09-11T18:12:21.505Z,101509.00
2018-09-11T18:17:14.761Z,101517.00
2018-09-11T18:22:08.039Z,101524.00
2018-09-11T18:27:01.277Z,101526.00
2018-09-11T18:31:54.665Z,101529.00
2018-09-11T18:36:47.950Z,101533.00
2018-09-11T18:41:41.291Z,101542.00
2018-09-11T18:46:34.560Z,101533.00
2018-09-11T18:51:34.600Z,101540.00
2018-09-11T18:56:27.821Z,101547.00
2018-09-11T19:01:21.057Z,101548.00
2018-09-11T19:06:14.301Z,101550.00
2018-09-11T19:11:07.639Z,101560.00
2018-09-11T19:16:00.939Z,101564.00
2018-09-11T19:20:54.237Z,101561.00
2018-09-11T19:25:47.510Z,101562.00
2018-09-11T19:30:41.521Z,101561.00
2018-09-11T19:35:34.819Z,101559.00
2018-09-11T19:40:28.077Z,101556.00
2018-09-11T19:45:21.375Z,101554.00
2018-09-11T19:50:14.735Z,101553.00
2018-09-11T19:55:07.977Z,101556.00
2018-09-11T20:00:01.295Z,101557.00
2018-09-11T20:05:01.275Z,101556.00
2018-09-11T20:09:54.531Z,101558.00
2018-09-11T20:14:48.768Z,101558.00
2018-09-11T20:19:42.051Z,101551.00
2018-09-11T20:24:35.296Z,101553.00
2018-09-11T20:29:28.551Z,101556.00
2018-09-11T20:34:21.818Z,101557.00
2018-09-11T20:39:15.071Z,101561.00
2018-09-11T20:44:09.417Z,101562.00
2018-09-11T20:49:02.665Z,101567.00
2018-09-11T20:53:55.941Z,101563.00
2018-09-11T20:58:49.159Z,101566.00
2018-09-11T21:03:42.412Z,101570.00
2018-09-11T21:08:35.664Z,101574.00
2018-09-11T21:13:29.064Z,101578.00
2018-09-11T21:18:22.361Z,101580.00
2018-09-11T21:23:15.611Z,101579.00
2018-09-11T21:28:08.994Z,101581.00
2018-09-11T21:33:02.265Z,101583.00
2018-09-11T21:37:55.511Z,101581.00
2018-09-11T21:42:48.714Z,101587.00
2018-09-11T21:47:42.016Z,101585.00
2018-09-11T21:52:35.348Z,101586.00
2018-09-11T21:57:28.551Z,101591.00
2018-09-11T22:02:21.814Z,101583.00
2018-09-11T22:07:15.067Z,101586.00
2018-09-11T22:12:08.295Z,101588.00
2018-09-11T22:17:01.694Z,101593.00
2018-09-11T22:21:54.999Z,101577.00
2018-09-11T22:26:48.206Z,101581.00
2018-09-11T22:31:41.432Z,101582.00
2018-09-11T22:36:34.705Z,101584.00
2018-09-11T22:41:27.923Z,101586.00
2018-09-11T22:46:22.055Z,101583.00
2018-09-11T22:51:15.293Z,101588.00
2018-09-11T22:56:08.566Z,101581.00
2018-09-11T23:01:01.758Z,101577.00
2018-09-11T23:05:55.135Z,101578.00
2018-09-11T23:10:48.384Z,101576.00
2018-09-11T23:15:41.579Z,101574.00
2018-09-11T23:20:34.781Z,101575.00
2018-09-11T23:25:28.085Z,101570.00
2018-09-11T23:30:21.307Z,101570.00
2018-09-11T23:35:14.601Z,101564.00
2018-09-11T23:40:07.908Z,101562.00
2018-09-11T23:45:01.126Z,101560.00
2018-09-11T23:49:54.867Z,101559.00
2018-09-11T23:54:48.081Z,101559.00
2018-09-11T23:59:41.387Z,101557.00
